Time;durP1;ratioP1;P1;durP2;ratioP2;P2;SDS_P1;SDS_P2;PMS_P1;PMS_P2;Temp;Humidity;BMP_temperature;BMP_pressure;BME280_temperature;BME280_humidity;BME280_pressure;Samples;Min_cycle;Max_cycle;Signal;HPM_P1;HPM_P2
2023/07/16 00:01:47;;;;;;;4.43;3.50;;;;;;;20.97;100.00;156756.50;4916110;29;21060;-83
2023/07/16 00:04:32;;;;;;;3.07;2.67;;;;;;;20.99;100.00;156760.44;4907800;29;20841;-83
2023/07/16 00:07:19;;;;;;;3.33;2.80;;;;;;;20.96;100.00;156752.63;4906742;29;20499;-84
2023/07/16 00:10:05;;;;;;;3.97;3.00;;;;;;;20.88;100.00;156733.06;4905492;29;20468;-83
2023/07/16 00:12:50;;;;;;;3.03;2.57;;;;;;;20.82;100.00;156716.06;4900691;29;20447;-84
2023/07/16 00:15:35;;;;;;;2.80;2.50;;;;;;;20.82;100.00;156716.06;4907392;29;20524;-85
2023/07/16 00:18:21;;;;;;;2.50;2.07;;;;;;;20.75;100.00;156697.81;4895060;29;20924;-83
2023/07/16 00:21:06;;;;;;;5.90;2.97;;;;;;;20.73;100.00;156692.63;4906481;29;20452;-83
2023/07/16 00:23:53;;;;;;;3.00;2.33;;;;;;;20.71;100.00;156687.34;4906780;29;20445;-83
2023/07/16 00:26:38;;;;;;;3.03;2.47;;;;;;;20.60;100.00;156659.94;4909833;29;20805;-84
2023/07/16 00:29:24;;;;;;;3.40;2.07;;;;;;;20.64;100.00;156671.72;4903598;29;20492;-83
2023/07/16 00:32:09;;;;;;;3.07;2.33;;;;;;;20.55;100.00;156646.91;4908468;29;20952;-84
2023/07/16 00:34:56;;;;;;;2.80;2.03;;;;;;;20.53;100.00;156641.72;4894905;29;20936;-83
2023/07/16 00:37:41;;;;;;;2.10;1.60;;;;;;;20.53;100.00;156641.72;4900327;29;20622;-84
2023/07/16 00:40:28;;;;;;;2.30;2.00;;;;;;;20.54;100.00;156645.59;4906742;29;20609;-84
2023/07/16 00:43:13;;;;;;;2.63;1.73;;;;;;;20.50;100.00;156635.19;4907861;29;20474;-84
2023/07/16 00:45:59;;;;;;;3.70;1.80;;;;;;;20.50;100.00;156635.19;4902849;29;20559;-84
2023/07/16 00:48:44;;;;;;;2.00;1.60;;;;;;;20.50;100.00;156635.19;4908060;29;20433;-84
2023/07/16 00:51:30;;;;;;;1.80;1.50;;;;;;;20.44;100.00;156618.22;4911781;29;20533;-84
2023/07/16 00:54:15;;;;;;;1.60;1.47;;;;;;;20.41;100.00;156611.69;4909386;29;20453;-84
2023/07/16 00:57:02;;;;;;;2.33;1.80;;;;;;;20.46;100.00;156624.78;4905560;29;20473;-84
2023/07/16 00:59:48;;;;;;;2.10;1.80;;;;;;;20.48;100.00;156629.97;4914439;29;20588;-83
2023/07/16 01:02:36;;;;;;;1.90;1.60;;;;;;;20.47;100.00;156627.34;4902661;29;20497;-83
2023/07/16 01:05:21;;;;;;;2.30;1.87;;;;;;;20.47;100.00;156627.34;4906254;29;20504;-83
2023/07/16 01:08:09;;;;;;;2.90;1.73;;;;;;;20.46;100.00;156624.78;4903390;29;20449;-83
2023/07/16 01:10:55;;;;;;;2.00;1.70;;;;;;;20.40;100.00;156607.78;4901601;29;20561;-83
2023/07/16 01:13:43;;;;;;;2.43;1.80;;;;;;;20.37;100.00;156601.28;4895883;29;20468;-83
2023/07/16 01:16:28;;;;;;;2.07;1.77;;;;;;;20.36;100.00;156598.66;4907327;29;20485;-83
2023/07/16 01:19:15;;;;;;;2.30;2.00;;;;;;;20.32;100.00;156588.25;4903405;29;20456;-83
2023/07/16 01:22:25;;;;;;;2.60;2.20;;;;;;;20.28;100.00;156577.78;4906907;29;20460;-83
2023/07/16 01:25:38;;;;;;;1.93;1.73;;;;;;;20.27;100.00;156575.19;4904881;29;20469;-83
2023/07/16 01:28:55;;;;;;;3.10;2.50;;;;;;;20.29;100.00;156580.41;4904215;29;20484;-84
2023/07/16 01:31:41;;;;;;;2.07;1.87;;;;;;;20.31;100.00;156585.63;4913522;29;21356;-84
2023/07/16 01:34:29;;;;;;;2.13;1.60;;;;;;;20.30;100.00;156583.03;4913771;29;21389;-84
2023/07/16 01:37:14;;;;;;;1.80;1.50;;;;;;;20.25;100.00;156568.69;4894922;29;20972;-83
2023/07/16 01:40:02;;;;;;;2.33;1.90;;;;;;;20.22;100.00;156562.13;4899989;29;20457;-84
2023/07/16 01:42:47;;;;;;;2.67;1.67;;;;;;;20.11;100.00;156533.41;4900943;29;20428;-84
2023/07/16 01:45:32;;;;;;;1.77;1.50;;;;;;;20.02;100.00;156511.22;4911508;29;20480;-84
2023/07/16 01:48:33;;;;;;;2.10;1.70;;;;;;;19.94;100.00;156489.06;4907939;29;20426;-84
2023/07/16 01:51:20;;;;;;;2.13;1.60;;;;;;;19.97;100.00;156496.88;4895737;29;20955;-82
2023/07/16 01:54:05;;;;;;;2.00;1.23;;;;;;;19.92;100.00;156483.84;4909459;29;20695;-82
2023/07/16 01:56:50;;;;;;;2.10;1.70;;;;;;;19.84;100.00;156463.00;4894515;29;21000;-81
2023/07/16 01:59:35;;;;;;;2.07;1.53;;;;;;;19.85;100.00;156465.63;4915749;29;20894;-82
2023/07/16 02:02:21;;;;;;;1.83;1.60;;;;;;;19.83;100.00;156460.41;4918064;29;20965;-82
2023/07/16 02:05:08;;;;;;;1.90;1.60;;;;;;;19.81;100.00;156455.16;4903108;29;20461;-82
2023/07/16 02:07:53;;;;;;;2.30;1.80;;;;;;;19.87;100.00;156470.81;4903591;29;20507;-82
2023/07/16 02:10:38;;;;;;;1.70;1.40;;;;;;;19.78;100.00;156448.63;4907039;29;21077;-81
2023/07/16 02:13:24;;;;;;;1.90;1.50;;;;;;;19.65;100.00;156413.44;4911376;29;20556;-82
2023/07/16 02:16:09;;;;;;;2.30;1.70;;;;;;;19.70;100.00;156426.47;4911630;29;20523;-82
2023/07/16 02:18:54;;;;;;;3.47;1.60;;;;;;;19.72;100.00;156431.72;4889404;29;20642;-82
2023/07/16 02:21:41;;;;;;;2.10;1.20;;;;;;;19.63;100.00;156408.22;4905080;29;20451;-82
2023/07/16 02:24:26;;;;;;;2.07;1.70;;;;;;;19.58;100.00;156395.19;4912890;29;20409;-82
2023/07/16 02:27:12;;;;;;;2.43;2.23;;;;;;;19.43;100.00;156358.69;4904463;29;20457;-82
2023/07/16 02:29:59;;;;;;;2.20;1.40;;;;;;;19.47;100.00;156366.50;4903286;29;20537;-82
2023/07/16 02:32:44;;;;;;;1.80;1.30;;;;;;;19.42;100.00;156354.78;4912144;29;20417;-82
2023/07/16 02:35:30;;;;;;;2.47;1.70;;;;;;;19.42;100.00;156356.09;4910232;29;20492;-82
2023/07/16 02:38:16;;;;;;;2.53;1.50;;;;;;;19.37;100.00;156343.06;4889152;29;20536;-82
2023/07/16 02:41:02;;;;;;;2.10;1.37;;;;;;;19.33;100.00;156332.56;4905050;29;20481;-83
2023/07/16 02:43:47;;;;;;;3.80;1.70;;;;;;;19.23;100.00;156306.53;4912897;29;20405;-84
2023/07/16 02:46:32;;;;;;;1.80;1.63;;;;;;;19.29;100.00;156322.16;4892840;29;20816;-85
2023/07/16 02:49:18;;;;;;;2.40;1.43;;;;;;;19.23;100.00;156306.53;4897435;29;20442;-84
2023/07/16 02:52:03;;;;;;;2.00;1.50;;;;;;;19.17;100.00;156290.88;4892820;29;20418;-84
2023/07/16 02:54:50;;;;;;;2.03;1.70;;;;;;;19.09;100.00;156270.00;4906844;29;20972;-84
2023/07/16 02:57:35;;;;;;;1.50;1.20;;;;;;;19.03;100.00;156254.41;4895536;29;20567;-83
2023/07/16 03:00:21;;;;;;;2.00;1.50;;;;;;;18.90;100.00;156219.22;4915928;29;20456;-84
2023/07/16 03:03:06;;;;;;;6.37;2.03;;;;;;;18.86;100.00;156210.09;4910538;29;20466;-84
2023/07/16 03:05:51;;;;;;;2.90;1.60;;;;;;;18.82;100.00;156199.69;4893509;29;20500;-83
2023/07/16 03:08:36;;;;;;;2.20;1.40;;;;;;;18.85;100.00;156208.78;4903186;29;20476;-83
2023/07/16 03:11:25;;;;;;;1.80;1.50;;;;;;;18.83;100.00;156202.25;4907467;29;20931;-83
2023/07/16 03:14:10;;;;;;;3.43;1.47;;;;;;;18.77;100.00;156186.66;4910948;29;20457;-83
2023/07/16 03:16:55;;;;;;;3.00;1.87;;;;;;;18.74;100.00;156178.84;4910221;29;20472;-83
2023/07/16 03:19:41;;;;;;;2.37;1.47;;;;;;;18.72;100.00;156173.59;4910667;29;20464;-83
2023/07/16 03:22:27;;;;;;;1.90;1.60;;;;;;;18.73;100.00;156177.53;4906414;29;20451;-83
2023/07/16 03:25:12;;;;;;;2.13;1.73;;;;;;;18.70;100.00;156168.38;4908625;29;20578;-83
2023/07/16 03:27:59;;;;;;;1.90;1.70;;;;;;;18.64;100.00;156152.75;4886418;29;20533;-83
2023/07/16 03:30:46;;;;;;;2.40;1.90;;;;;;;18.53;100.00;156124.13;4914908;29;20440;-83
2023/07/16 03:33:31;;;;;;;2.50;1.90;;;;;;;18.48;100.00;156111.09;4898254;29;20472;-83
2023/07/16 03:36:19;;;;;;;2.23;1.97;;;;;;;18.47;100.00;156108.44;4901157;29;20952;-83
2023/07/16 03:39:03;;;;;;;2.83;1.30;;;;;;;18.43;100.00;156099.28;4902588;29;21050;-83
2023/07/16 03:41:49;;;;;;;1.67;1.37;;;;;;;18.42;100.00;156096.72;4897304;29;20464;-83
2023/07/16 03:44:36;;;;;;;2.20;1.43;;;;;;;18.51;100.00;156120.19;4918852;29;20878;-82
2023/07/16 03:47:22;;;;;;;5.50;1.77;;;;;;;18.41;100.00;156094.09;4918771;29;20448;-83
2023/07/16 03:50:16;;;;;;;3.90;1.90;;;;;;;18.41;100.00;156092.78;4898005;29;20475;-83
2023/07/16 03:53:03;;;;;;;8.57;2.10;;;;;;;18.37;100.00;156083.69;4905132;29;20444;-83
2023/07/16 03:55:48;;;;;;;2.17;1.93;;;;;;;18.38;100.00;156086.28;4904680;29;21071;-83
2023/07/16 03:58:33;;;;;;;2.07;1.60;;;;;;;18.42;100.00;156095.41;4903968;29;21109;-83
2023/07/16 04:01:22;;;;;;;2.27;1.60;;;;;;;18.42;100.00;156095.41;4910046;29;20452;-83
2023/07/16 04:04:07;;;;;;;4.40;2.07;;;;;;;18.46;100.00;156107.09;4890338;29;20595;-87
2023/07/16 04:06:52;;;;;;;3.00;1.90;;;;;;;18.44;100.00;156101.91;4898862;29;20484;-87
2023/07/16 04:09:38;;;;;;;2.77;2.00;;;;;;;18.42;100.00;156096.72;4904473;29;20452;-88
2023/07/16 04:12:23;;;;;;;2.50;1.73;;;;;;;18.41;100.00;156092.78;4909066;29;20593;-87
2023/07/16 04:15:10;;;;;;;4.37;2.07;;;;;;;18.41;100.00;156094.09;4895586;29;20496;-87
2023/07/16 04:17:57;;;;;;;4.63;1.50;;;;;;;18.45;100.00;156104.53;4904824;29;20979;-88
2023/07/16 04:20:42;;;;;;;2.30;2.10;;;;;;;18.43;100.00;156099.28;4911243;29;20464;-87
2023/07/16 04:23:27;;;;;;;2.87;1.77;;;;;;;18.51;100.00;156118.88;4914800;29;20421;-87
2023/07/16 04:26:13;;;;;;;2.60;1.57;;;;;;;18.48;100.00;156112.38;4912473;29;20957;-89
2023/07/16 04:28:58;;;;;;;4.07;2.00;;;;;;;18.54;100.00;156126.69;4902299;29;20465;-89
2023/07/16 04:31:43;;;;;;;5.23;1.80;;;;;;;18.48;100.00;156111.09;4913383;29;20508;-89
2023/07/16 04:34:30;;;;;;;2.57;1.90;;;;;;;18.38;100.00;156084.97;4906076;29;20938;-89
2023/07/16 04:37:15;;;;;;;3.20;1.70;;;;;;;18.42;100.00;156095.41;4905676;29;20666;-87
2023/07/16 04:40:03;;;;;;;3.60;2.00;;;;;;;18.38;100.00;156084.97;4906398;29;20457;-87
2023/07/16 04:42:49;;;;;;;2.50;1.90;;;;;;;18.38;100.00;156084.97;4906978;29;20484;-87
2023/07/16 04:45:34;;;;;;;1.90;1.53;;;;;;;18.36;100.00;156079.75;4904273;29;20475;-87
2023/07/16 04:48:19;;;;;;;2.77;2.13;;;;;;;18.35;100.00;156077.19;4905216;29;20560;-88
2023/07/16 04:51:06;;;;;;;2.73;1.87;;;;;;;18.33;100.00;156073.25;4909206;29;20825;-87
2023/07/16 04:53:52;;;;;;;2.97;1.90;;;;;;;18.32;100.00;156069.38;4897269;29;20900;-87
2023/07/16 04:56:38;;;;;;;3.93;2.30;;;;;;;18.35;100.00;156077.19;4903703;29;20461;-88
2023/07/16 04:59:23;;;;;;;3.83;2.33;;;;;;;18.31;100.00;156066.75;4910265;29;20474;-87
2023/07/16 05:02:34;;;;;;;3.00;1.83;;;;;;;18.30;100.00;156064.13;4869535;29;20522;-87
2023/07/16 05:05:19;;;;;;;2.97;2.13;;;;;;;18.35;100.00;156077.19;4904300;29;20491;-87
2023/07/16 05:08:06;;;;;;;2.20;1.80;;;;;;;18.36;100.00;156081.06;4890843;29;20508;-87
2023/07/16 05:10:52;;;;;;;2.80;2.07;;;;;;;18.35;100.00;156077.19;4910109;29;21597;-87
2023/07/16 05:13:37;;;;;;;2.30;1.90;;;;;;;18.37;100.00;156082.38;4914816;29;21001;-87
2023/07/16 05:16:30;;;;;;;3.00;2.30;;;;;;;18.38;100.00;156084.97;4917714;29;20466;-87
2023/07/16 05:19:15;;;;;;;2.37;2.07;;;;;;;18.37;100.00;156082.38;4916680;29;20457;-87
2023/07/16 05:22:00;;;;;;;3.50;1.90;;;;;;;18.36;100.00;156079.75;4917185;29;20812;-87
2023/07/16 05:24:47;;;;;;;3.73;2.00;;;;;;;18.35;100.00;156077.19;4915834;29;20460;-87
2023/07/16 05:27:32;;;;;;;6.57;2.00;;;;;;;18.36;100.00;156079.75;4907055;29;20998;-87
2023/07/16 05:30:17;;;;;;;2.30;1.70;;;;;;;18.35;100.00;156077.19;4899065;29;20507;-87
2023/07/16 05:33:03;;;;;;;2.53;2.23;;;;;;;18.37;100.00;156082.38;4908947;29;20451;-87
2023/07/16 05:35:50;;;;;;;2.67;2.07;;;;;;;18.32;100.00;156069.38;4900361;29;20818;-87
2023/07/16 05:38:35;;;;;;;2.43;1.90;;;;;;;18.35;100.00;156077.19;4895500;29;20571;-87
2023/07/16 05:41:21;;;;;;;3.33;2.00;;;;;;;18.33;100.00;156071.94;4915424;29;20555;-85
2023/07/16 05:44:07;;;;;;;3.30;2.10;;;;;;;18.36;100.00;156081.06;4925513;29;20544;-86
2023/07/16 05:46:52;;;;;;;4.00;2.03;;;;;;;18.39;100.00;156087.59;4916288;29;20959;-87
2023/07/16 05:49:37;;;;;;;4.83;2.17;;;;;;;18.43;100.00;156097.97;4918296;29;20748;-86
2023/07/16 05:52:22;;;;;;;3.07;2.10;;;;;;;18.43;100.00;156099.28;4916391;29;20983;-86
2023/07/16 05:55:08;;;;;;;4.13;2.17;;;;;;;18.48;100.00;156111.09;4920987;29;20809;-86
2023/07/16 05:57:55;;;;;;;3.53;1.87;;;;;;;18.53;100.00;156124.13;4915962;29;20969;-86
2023/07/16 06:00:40;;;;;;;4.00;1.90;;;;;;;18.56;100.00;156131.94;4900467;29;20472;-86
2023/07/16 06:03:25;;;;;;;2.30;1.80;;;;;;;18.61;100.00;156146.22;4896251;29;20519;-86
2023/07/16 06:06:10;;;;;;;4.23;2.27;;;;;;;18.78;100.00;156189.22;4916722;29;21019;-86
2023/07/16 06:08:56;;;;;;;4.50;2.20;;;;;;;18.94;100.00;156230.94;4893297;29;20477;-86
2023/07/16 06:11:41;;;;;;;3.53;2.40;;;;;;;18.97;100.00;156238.75;4907496;29;20468;-85
2023/07/16 06:14:28;;;;;;;2.30;1.67;;;;;;;18.91;100.00;156223.09;4918162;29;21019;-85
2023/07/16 06:17:13;;;;;;;3.50;2.23;;;;;;;18.91;100.00;156223.09;4915392;29;20795;-85
2023/07/16 06:19:58;;;;;;;2.60;1.80;;;;;;;18.87;100.00;156212.72;4919124;29;20456;-85
2023/07/16 06:22:44;;;;;;;2.47;1.83;;;;;;;18.77;100.00;156186.66;4921569;29;20452;-85
2023/07/16 06:25:29;;;;;;;1.97;1.70;;;;;;;18.76;100.00;156184.03;4918130;29;20459;-85
2023/07/16 06:28:14;;;;;;;6.13;2.33;;;;;;;18.68;100.00;156163.19;4897967;29;20468;-85
2023/07/16 06:31:01;;;;;;;7.30;2.50;;;;;;;18.67;100.00;156160.56;4919993;29;20526;-76
2023/07/16 06:33:47;;;;;;;5.50;2.10;;;;;;;18.64;100.00;156154.06;4909030;29;20480;-76
2023/07/16 06:36:32;;;;;;;5.53;1.80;;;;;;;18.65;100.00;156155.38;4910658;29;20550;-76
2023/07/16 06:39:17;;;;;;;3.17;1.83;;;;;;;18.63;100.00;156151.47;4914269;29;21103;-76
2023/07/16 06:42:03;;;;;;;7.00;2.13;;;;;;;18.69;100.00;156165.81;4918298;29;20924;-76
2023/07/16 06:44:48;;;;;;;2.37;2.00;;;;;;;18.73;100.00;156176.22;4912751;29;20460;-75
2023/07/16 06:47:35;;;;;;;4.20;2.00;;;;;;;18.68;100.00;156164.50;4918420;29;20461;-76
2023/07/16 06:50:20;;;;;;;4.23;2.00;;;;;;;18.72;100.00;156173.59;4918898;29;20609;-75
2023/07/16 06:53:05;;;;;;;2.97;2.00;;;;;;;18.82;100.00;156200.94;4911160;29;20451;-76
2023/07/16 06:55:51;;;;;;;2.10;1.90;;;;;;;18.87;100.00;156212.72;4920041;29;20543;-75
2023/07/16 06:58:36;;;;;;;4.10;2.20;;;;;;;18.94;100.00;156230.94;4904741;29;20588;-75
2023/07/16 07:01:23;;;;;;;2.73;2.10;;;;;;;19.04;100.00;156256.97;4910321;29;20455;-75
2023/07/16 07:04:09;;;;;;;3.67;2.40;;;;;;;19.19;100.00;156296.13;4914131;29;20573;-75
2023/07/16 07:06:55;;;;;;;2.67;2.17;;;;;;;19.39;100.00;156348.28;4917621;29;20617;-75
2023/07/16 07:09:40;;;;;;;2.60;2.40;;;;;;;19.74;100.00;156436.91;4910332;29;20801;-75
2023/07/16 07:12:26;;;;;;;3.13;2.07;;;;;;;20.13;100.00;156537.31;4911617;29;20457;-75
2023/07/16 07:15:11;;;;;;;4.13;2.00;;;;;;;20.50;100.00;156633.88;4913660;29;20995;-75
2023/07/16 07:17:56;;;;;;;2.73;2.43;;;;;;;20.81;100.00;156713.47;4901226;29;20475;-76
2023/07/16 07:20:43;;;;;;;4.60;2.10;;;;;;;21.11;100.00;156791.81;4907013;29;20567;-76
2023/07/16 07:23:28;;;;;;;2.40;1.90;;;;;;;21.39;100.00;156864.91;4910616;29;21244;-76
2023/07/16 07:26:14;;;;;;;4.00;2.20;;;;;;;21.69;100.00;156941.91;4908393;29;20490;-76
2023/07/16 07:28:59;;;;;;;3.87;1.77;;;;;;;21.87;97.93;156988.94;4916589;29;20971;-85
2023/07/16 07:31:45;;;;;;;3.43;1.70;;;;;;;22.04;95.18;157032.03;4919033;29;20456;-84
2023/07/16 07:34:30;;;;;;;4.17;1.80;;;;;;;22.25;95.96;157086.91;4915770;29;20472;-84
2023/07/16 07:37:17;;;;;;;10.43;2.47;;;;;;;22.48;92.62;157146.97;4914669;29;20445;-83
2023/07/16 07:40:03;;;;;;;3.13;1.70;;;;;;;22.59;89.67;157174.41;4911023;29;20897;-84
2023/07/16 07:42:48;;;;;;;3.67;1.90;;;;;;;22.59;90.39;157174.41;4916516;29;20460;-84
2023/07/16 07:45:34;;;;;;;3.63;2.03;;;;;;;22.52;87.96;157157.44;4912235;29;20613;-84
2023/07/16 07:48:21;;;;;;;3.67;2.00;;;;;;;22.52;89.24;157157.44;4901283;29;20476;-84
2023/07/16 07:51:06;;;;;;;4.20;1.90;;;;;;;22.62;87.06;157182.25;4916001;29;20471;-83
2023/07/16 07:53:56;;;;;;;3.63;2.10;;;;;;;22.86;84.51;157246.31;4901682;29;20449;-84
2023/07/16 07:56:41;;;;;;;4.20;2.03;;;;;;;23.15;83.17;157320.81;4916870;29;20457;-84
2023/07/16 07:59:26;;;;;;;3.40;1.60;;;;;;;23.04;80.58;157292.03;4914725;29;20492;-85
2023/07/16 08:02:11;;;;;;;3.43;1.60;;;;;;;22.89;77.88;157254.16;4918597;29;20452;-84
2023/07/16 08:04:57;;;;;;;2.50;1.70;;;;;;;22.72;84.00;157209.72;4906246;29;20520;-84
2023/07/16 08:07:42;;;;;;;3.40;1.70;;;;;;;22.61;83.55;157179.66;4917184;29;20557;-84
2023/07/16 08:10:29;;;;;;;6.23;1.73;;;;;;;22.79;82.94;157226.75;4910782;29;20468;-83
2023/07/16 08:13:14;;;;;;;2.97;1.90;;;;;;;22.97;80.68;157275.09;4909887;29;20892;-84
2023/07/16 08:16:00;;;;;;;2.53;1.97;;;;;;;23.41;77.53;157387.50;4918756;29;20962;-84
2023/07/16 08:18:45;;;;;;;3.00;1.83;;;;;;;23.59;78.99;157435.84;4901053;29;20955;-84
2023/07/16 08:21:30;;;;;;;2.20;1.70;;;;;;;23.53;77.52;157418.88;4919798;29;20499;-84
2023/07/16 08:24:15;;;;;;;2.70;1.70;;;;;;;23.63;77.63;157445.03;4919403;29;20531;-84
2023/07/16 08:27:02;;;;;;;1.80;1.37;;;;;;;23.78;69.67;157482.91;4903075;29;20459;-84
2023/07/16 08:29:47;;;;;;;2.97;1.60;;;;;;;24.08;76.01;157562.75;4910632;29;20490;-84
2023/07/16 08:32:33;;;;;;;2.33;1.70;;;;;;;23.94;76.93;157526.06;4909900;29;20448;-85
2023/07/16 08:35:19;;;;;;;2.53;1.40;;;;;;;23.77;74.30;157481.66;4890860;29;20478;-85
2023/07/16 08:38:09;;;;;;;1.90;1.70;;;;;;;23.66;73.24;157452.88;4901286;29;20475;-85
2023/07/16 08:40:54;;;;;;;6.23;2.20;;;;;;;23.60;76.64;157438.50;4898287;29;20480;-85
2023/07/16 08:43:41;;;;;;;2.50;1.40;;;;;;;23.45;74.41;157397.97;4900923;29;22073;-85
2023/07/16 08:46:27;;;;;;;2.50;1.70;;;;;;;23.58;76.23;157433.28;4894631;29;20465;-84
2023/07/16 08:49:13;;;;;;;1.97;1.37;;;;;;;23.79;70.67;157486.88;4911048;29;20568;-85
2023/07/16 08:51:58;;;;;;;3.40;1.80;;;;;;;23.78;67.35;157484.22;4906885;29;20447;-85
2023/07/16 08:54:43;;;;;;;1.70;1.50;;;;;;;23.81;69.47;157492.06;4919024;29;20452;-85
2023/07/16 08:57:30;;;;;;;2.37;1.90;;;;;;;23.82;69.23;157494.72;4900662;29;20461;-85
2023/07/16 09:00:17;;;;;;;2.77;2.10;;;;;;;23.74;71.59;157473.78;4906714;29;20946;-85
2023/07/16 09:03:02;;;;;;;2.90;1.70;;;;;;;23.83;74.42;157497.28;4914305;29;20452;-85
2023/07/16 09:05:48;;;;;;;2.10;1.70;;;;;;;23.73;71.48;157471.16;4915285;29;20487;-78
2023/07/16 09:08:33;;;;;;;3.60;1.97;;;;;;;23.94;72.55;157526.06;4907831;29;20460;-78
2023/07/16 09:11:21;;;;;;;2.63;1.67;;;;;;;23.99;71.13;157539.13;4906915;29;21229;-78
2023/07/16 09:14:06;;;;;;;2.60;1.63;;;;;;;24.22;69.34;157598.06;4919053;29;20529;-78
2023/07/16 09:16:53;;;;;;;2.47;1.80;;;;;;;24.42;67.00;157649.03;4909396;29;21035;-78
2023/07/16 09:19:39;;;;;;;3.73;1.70;;;;;;;24.57;66.84;157689.59;4913774;29;20476;-78
2023/07/16 09:22:25;;;;;;;3.70;1.67;;;;;;;24.66;64.78;157711.84;4906553;29;20451;-78
2023/07/16 09:25:11;;;;;;;2.97;1.87;;;;;;;24.75;63.99;157736.66;4916443;29;20833;-78
2023/07/16 09:27:58;;;;;;;2.23;1.53;;;;;;;24.95;63.79;157786.44;4919839;29;20443;-78
2023/07/16 09:30:47;;;;;;;2.37;1.77;;;;;;;25.05;59.35;157813.91;4919351;29;20519;-78
2023/07/16 09:33:34;;;;;;;1.80;1.30;;;;;;;25.15;64.46;157840.09;4916954;29;20458;-79
2023/07/16 09:36:24;;;;;;;2.00;1.40;;;;;;;25.12;56.72;157830.97;4919094;29;20460;-78
2023/07/16 09:39:10;;;;;;;2.83;1.83;;;;;;;25.33;59.41;157887.22;4904166;29;20605;-78
2023/07/16 09:41:57;;;;;;;2.43;1.93;;;;;;;25.50;67.00;157930.44;4919016;29;21075;-79
2023/07/16 09:44:44;;;;;;;2.80;1.60;;;;;;;25.37;56.58;157897.69;4919196;29;20452;-79
2023/07/16 09:47:40;;;;;;;2.13;1.70;;;;;;;25.57;59.56;157947.47;4916548;29;21070;-79
2023/07/16 09:50:28;;;;;;;3.20;1.70;;;;;;;25.74;64.46;157991.97;4918399;29;20459;-78
2023/07/16 09:53:13;;;;;;;2.83;2.03;;;;;;;25.75;57.43;157994.59;4915200;29;20574;-79
2023/07/16 09:56:00;;;;;;;4.63;2.10;;;;;;;25.87;61.25;158027.31;4919931;29;20467;-83
2023/07/16 09:58:45;;;;;;;3.03;1.80;;;;;;;25.95;53.92;158046.94;4915811;29;20879;-83
2023/07/16 10:01:31;;;;;;;2.23;1.60;;;;;;;26.12;56.89;158091.47;4919769;29;21015;-83
2023/07/16 10:04:20;;;;;;;2.10;1.57;;;;;;;26.06;52.92;158074.44;4902221;29;22044;-83
2023/07/16 10:07:07;;;;;;;3.57;2.10;;;;;;;25.87;50.07;158026.00;4888148;29;20524;-84
2023/07/16 10:09:54;;;;;;;2.23;2.00;;;;;;;25.84;52.26;158018.19;4915106;29;20443;-84
2023/07/16 10:12:39;;;;;;;2.27;1.80;;;;;;;25.83;55.49;158015.53;4908205;29;20456;-84
2023/07/16 10:15:28;;;;;;;3.13;2.00;;;;;;;25.91;60.14;158036.50;4910036;29;20813;-84
2023/07/16 10:18:23;;;;;;;2.20;1.70;;;;;;;25.86;53.78;158023.41;4916466;29;20490;-83
2023/07/16 10:21:10;;;;;;;4.00;1.90;;;;;;;25.91;53.24;158036.50;4907258;29;20493;-83
2023/07/16 10:24:00;;;;;;;2.10;1.90;;;;;;;25.82;50.07;158012.91;4910411;29;20452;-83
2023/07/16 10:26:45;;;;;;;2.40;1.90;;;;;;;25.75;49.07;157995.91;4916044;29;20467;-83
2023/07/16 10:29:30;;;;;;;2.57;1.70;;;;;;;25.63;57.05;157963.19;4907728;29;20476;-83
2023/07/16 10:32:15;;;;;;;2.10;1.70;;;;;;;25.62;53.46;157960.56;4916856;29;21127;-83
2023/07/16 10:35:01;;;;;;;2.70;1.57;;;;;;;25.84;57.03;158019.44;4917109;29;20456;-83
2023/07/16 10:37:46;;;;;;;2.37;2.10;;;;;;;25.89;60.01;158031.25;4914780;29;21346;-83
2023/07/16 10:40:33;;;;;;;3.13;1.93;;;;;;;25.77;53.00;157999.81;4906416;29;20475;-84
2023/07/16 10:43:19;;;;;;;3.50;1.70;;;;;;;25.77;56.53;158001.13;4911523;29;20457;-83
2023/07/16 10:46:04;;;;;;;2.80;1.80;;;;;;;25.78;60.21;158002.47;4911220;29;20452;-83
2023/07/16 10:48:49;;;;;;;4.20;2.30;;;;;;;25.79;60.30;158005.03;4898459;29;21103;-83
2023/07/16 10:51:35;;;;;;;2.53;2.13;;;;;;;25.79;55.96;158006.38;4916089;29;20445;-83
2023/07/16 10:54:21;;;;;;;4.17;2.00;;;;;;;25.86;61.17;158024.72;4918098;29;20516;-83
2023/07/16 10:57:08;;;;;;;2.40;1.80;;;;;;;25.57;51.84;157947.47;4914698;29;21137;-83
2023/07/16 10:59:55;;;;;;;2.40;1.90;;;;;;;25.36;60.96;157895.03;4916842;29;20463;-83
2023/07/16 11:02:41;;;;;;;2.33;1.87;;;;;;;25.15;51.69;157840.09;4901298;29;20510;-83
2023/07/16 11:05:26;;;;;;;2.80;2.13;;;;;;;25.15;51.30;157840.09;4916356;29;20443;-82
2023/07/16 11:08:11;;;;;;;2.20;1.80;;;;;;;25.25;55.59;157864.97;4899168;29;20460;-83
2023/07/16 11:10:57;;;;;;;3.10;2.40;;;;;;;25.41;62.09;157906.84;4916277;29;21006;-82
2023/07/16 11:13:46;;;;;;;2.90;1.90;;;;;;;25.43;57.86;157912.09;4910979;29;20459;-82
2023/07/16 11:16:34;;;;;;;2.50;2.30;;;;;;;25.33;61.59;157885.91;4900899;29;20467;-82
2023/07/16 11:19:21;;;;;;;3.00;2.30;;;;;;;25.23;63.41;157861.03;4911478;29;20463;-82
2023/07/16 11:22:08;;;;;;;2.60;2.20;;;;;;;25.26;64.59;157868.88;4910436;29;20464;-82
2023/07/16 11:24:54;;;;;;;3.00;2.23;;;;;;;25.31;65.72;157880.69;4905519;29;20448;-82
2023/07/16 11:27:41;;;;;;;3.43;2.17;;;;;;;25.27;63.67;157870.19;4913597;29;20463;-82
2023/07/16 11:30:29;;;;;;;2.20;2.00;;;;;;;25.30;64.79;157879.38;4891045;29;20731;-82
2023/07/16 11:33:14;;;;;;;2.97;1.90;;;;;;;25.30;60.48;157878.06;4916001;29;20464;-82
2023/07/16 11:36:00;;;;;;;3.60;1.80;;;;;;;25.37;62.22;157897.69;4917113;29;20448;-82
2023/07/16 11:38:45;;;;;;;3.33;2.07;;;;;;;25.27;52.19;157871.53;4915071;29;20460;-82
2023/07/16 11:41:31;;;;;;;3.70;2.20;;;;;;;25.40;63.22;157905.53;4917575;29;20432;-82
2023/07/16 11:44:20;;;;;;;2.77;2.20;;;;;;;25.41;55.35;157908.19;4920161;29;21018;-82
2023/07/16 11:47:07;;;;;;;3.87;1.90;;;;;;;25.50;55.68;157929.13;4919037;29;20511;-83
2023/07/16 11:49:52;;;;;;;2.53;1.90;;;;;;;25.47;54.98;157922.56;4919664;29;20800;-82
2023/07/16 11:52:37;;;;;;;3.53;2.50;;;;;;;25.54;62.34;157939.63;4919423;29;21090;-82
2023/07/16 11:55:22;;;;;;;3.57;2.50;;;;;;;25.58;59.83;157951.38;4920617;29;20907;-82
2023/07/16 11:58:08;;;;;;;2.47;1.80;;;;;;;25.62;55.87;157960.56;4915366;29;20460;-82
2023/07/16 12:00:53;;;;;;;2.40;1.57;;;;;;;25.74;55.62;157993.28;4904782;29;21469;-82
2023/07/16 12:03:40;;;;;;;3.10;2.00;;;;;;;25.78;60.07;158003.78;4916341;29;20464;-82
2023/07/16 12:06:25;;;;;;;2.60;2.40;;;;;;;25.74;53.68;157993.28;4912073;29;20617;-82
2023/07/16 12:09:10;;;;;;;3.20;2.40;;;;;;;25.83;59.39;158015.53;4917677;29;20468;-82
2023/07/16 12:11:59;;;;;;;4.60;2.60;;;;;;;25.83;55.22;158016.88;4897504;29;22197;-82
2023/07/16 12:14:44;;;;;;;2.00;1.70;;;;;;;25.79;53.17;158006.38;4914877;29;21137;-82
2023/07/16 12:17:29;;;;;;;2.20;2.00;;;;;;;25.84;57.26;158018.19;4920289;29;20455;-83
2023/07/16 12:20:16;;;;;;;4.30;2.13;;;;;;;25.75;56.98;157995.91;4916073;29;20467;-83
2023/07/16 12:23:02;;;;;;;3.20;2.10;;;;;;;25.73;54.03;157990.69;4920374;29;20507;-82
2023/07/16 12:25:48;;;;;;;2.30;2.10;;;;;;;25.86;65.85;158023.41;4920221;29;20448;-82
2023/07/16 12:28:33;;;;;;;2.70;2.30;;;;;;;25.81;64.28;158010.31;4920074;29;20467;-82
2023/07/16 12:31:20;;;;;;;2.77;1.93;;;;;;;25.59;56.35;157952.69;4916009;29;20445;-82
2023/07/16 12:34:05;;;;;;;2.40;2.20;;;;;;;25.49;62.50;157926.53;4911697;29;20520;-82
2023/07/16 12:36:51;;;;;;;2.57;2.10;;;;;;;25.46;62.63;157918.63;4917563;29;20467;-82
2023/07/16 12:39:37;;;;;;;2.40;1.90;;;;;;;25.41;54.68;157908.19;4919392;29;20491;-82
2023/07/16 12:42:22;;;;;;;3.20;2.27;;;;;;;25.43;56.41;157913.41;4922834;29;20458;-82
2023/07/16 12:45:08;;;;;;;4.33;2.40;;;;;;;25.46;57.28;157918.63;4921014;29;20791;-82
2023/07/16 12:47:53;;;;;;;2.67;2.10;;;;;;;25.44;59.40;157914.72;4920355;29;21060;-82